createdAt,value
2022-08-26T00:01:53.295Z,18.26
2022-08-26T00:04:22.229Z,18.43
2022-08-26T00:06:49.204Z,18.52
2022-08-26T00:09:16.867Z,18.32
2022-08-26T00:11:47.460Z,18.61
2022-08-26T00:14:15.889Z,18.60
2022-08-26T00:16:48.093Z,18.86
2022-08-26T00:19:20.700Z,18.85
2022-08-26T00:21:49.756Z,18.70
2022-08-26T00:24:19.260Z,18.42
2022-08-26T00:26:46.588Z,18.48
2022-08-26T00:29:14.862Z,18.45
2022-08-26T00:31:42.533Z,18.67
2022-08-26T00:34:12.501Z,18.59
2022-08-26T00:36:41.069Z,18.50
2022-08-26T00:39:08.673Z,18.65
2022-08-26T00:41:38.278Z,18.23
2022-08-26T00:44:06.706Z,18.46
2022-08-26T00:46:46.955Z,18.55
2022-08-26T00:49:19.709Z,18.30
2022-08-26T00:51:52.488Z,18.29
2022-08-26T00:54:23.029Z,18.14
2022-08-26T00:56:59.876Z,18.19
2022-08-26T00:59:32.732Z,18.19
2022-08-26T01:02:02.713Z,18.25
2022-08-26T01:04:32.249Z,18.37
2022-08-26T01:07:00.019Z,18.02
2022-08-26T01:09:27.628Z,18.20
2022-08-26T01:11:57.684Z,18.31
2022-08-26T01:14:29.652Z,18.37
2022-08-26T01:16:56.664Z,18.22
2022-08-26T01:19:47.923Z,18.49
2022-08-26T01:22:21.021Z,18.58
2022-08-26T01:24:49.076Z,18.63
2022-08-26T01:27:19.835Z,18.65
2022-08-26T01:29:49.344Z,18.77
2022-08-26T01:32:22.314Z,18.77
2022-08-26T01:34:50.426Z,18.31
2022-08-26T01:37:22.168Z,18.16
2022-08-26T01:39:54.771Z,18.14
2022-08-26T01:42:24.694Z,17.90
2022-08-26T01:45:09.548Z,17.91
2022-08-26T01:47:37.949Z,17.95
2022-08-26T01:50:13.416Z,17.86
2022-08-26T01:52:49.868Z,18.01
2022-08-26T01:55:32.302Z,17.81
2022-08-26T01:58:04.824Z,17.69
2022-08-26T02:00:33.464Z,17.98
2022-08-26T02:03:18.800Z,17.85
2022-08-26T02:05:56.787Z,18.08
2022-08-26T02:08:45.968Z,18.15
2022-08-26T02:11:13.975Z,18.31
2022-08-26T02:13:48.707Z,18.24
2022-08-26T02:16:18.598Z,18.45
2022-08-26T02:18:47.072Z,18.54
2022-08-26T02:21:14.614Z,18.61
2022-08-26T02:23:42.694Z,18.59
2022-08-26T02:26:16.310Z,18.47
2022-08-26T02:28:49.063Z,18.10
2022-08-26T02:31:16.257Z,17.99
2022-08-26T02:33:43.399Z,17.81
2022-08-26T02:36:10.746Z,17.77
2022-08-26T02:38:40.311Z,17.97
2022-08-26T02:41:10.309Z,18.47
2022-08-26T02:43:37.393Z,18.33
2022-08-26T02:46:06.028Z,18.29
2022-08-26T02:48:33.200Z,18.00
2022-08-26T02:51:01.161Z,17.98
2022-08-26T02:53:32.078Z,17.98
2022-08-26T02:56:03.122Z,18.16
2022-08-26T02:58:30.095Z,18.08
2022-08-26T03:00:56.992Z,18.19
2022-08-26T03:03:23.973Z,18.19
2022-08-26T03:05:52.096Z,18.05
2022-08-26T03:08:19.618Z,18.20
2022-08-26T03:13:15.478Z,18.27
2022-08-26T03:15:42.334Z,18.28
2022-08-26T03:18:09.801Z,18.30
2022-08-26T03:20:37.165Z,18.32
2022-08-26T03:23:04.077Z,18.39
2022-08-26T03:25:31.297Z,18.41
2022-08-26T03:27:59.491Z,18.21
2022-08-26T03:30:45.214Z,18.31
2022-08-26T03:33:13.971Z,18.33
2022-08-26T03:35:43.607Z,18.45
2022-08-26T03:38:11.187Z,18.46
2022-08-26T03:40:39.145Z,18.26
2022-08-26T03:43:09.429Z,18.21
2022-08-26T03:45:37.862Z,18.18
2022-08-26T03:48:05.653Z,18.26
2022-08-26T03:50:34.230Z,18.38
2022-08-26T03:53:01.895Z,18.47
2022-08-26T03:55:34.197Z,18.53
2022-08-26T03:58:01.268Z,18.52
2022-08-26T04:00:29.688Z,18.27
2022-08-26T04:02:56.902Z,18.02
2022-08-26T04:05:25.415Z,18.14
2022-08-26T04:07:52.494Z,18.24
2022-08-26T04:10:28.721Z,18.42
2022-08-26T04:13:03.762Z,18.45
2022-08-26T04:15:30.954Z,18.32
2022-08-26T04:17:57.821Z,18.23
2022-08-26T04:20:25.965Z,18.02
2022-08-26T04:22:53.033Z,17.92
2022-08-26T04:25:27.894Z,18.04
2022-08-26T04:27:55.583Z,17.84
2022-08-26T04:30:22.472Z,17.83
2022-08-26T04:32:49.886Z,18.03
2022-08-26T04:35:17.036Z,17.88
2022-08-26T04:37:44.209Z,17.96
2022-08-26T04:40:12.121Z,17.83
2022-08-26T04:42:39.092Z,17.82
2022-08-26T04:45:09.975Z,17.97
2022-08-26T04:47:37.892Z,17.85
2022-08-26T04:50:07.493Z,18.02
2022-08-26T04:52:36.324Z,18.28
2022-08-26T04:55:05.957Z,18.24
2022-08-26T04:57:35.274Z,18.12
2022-08-26T05:00:05.658Z,18.33
2022-08-26T05:02:32.568Z,18.47
2022-08-26T05:04:59.779Z,18.25
2022-08-26T05:07:26.700Z,18.41
2022-08-26T05:09:53.679Z,18.55
2022-08-26T05:12:21.412Z,18.55
2022-08-26T05:14:48.268Z,18.78
2022-08-26T05:17:15.233Z,18.87
2022-08-26T05:19:42.951Z,18.93
2022-08-26T05:22:10.061Z,19.02
2022-08-26T05:24:40.345Z,19.06
2022-08-26T05:27:11.685Z,19.36
2022-08-26T05:29:39.267Z,19.52
2022-08-26T05:32:06.880Z,19.78
2022-08-26T05:34:34.419Z,19.96
2022-08-26T05:37:01.887Z,20.11
2022-08-26T05:39:29.258Z,20.39
2022-08-26T05:41:56.315Z,20.54
2022-08-26T05:44:23.182Z,20.75
2022-08-26T05:46:51.877Z,20.91
2022-08-26T05:49:18.875Z,21.11
2022-08-26T05:51:47.640Z,21.30
2022-08-26T05:54:22.102Z,21.48
2022-08-26T05:56:50.912Z,21.78
2022-08-26T05:59:21.407Z,22.02
2022-08-26T06:01:52.601Z,22.22
2022-08-26T06:04:20.009Z,22.45
2022-08-26T06:06:47.557Z,22.63
2022-08-26T06:09:14.721Z,22.96
2022-08-26T06:11:45.216Z,23.22
2022-08-26T06:14:12.323Z,23.25
2022-08-26T06:16:41.601Z,23.50
2022-08-26T06:19:11.287Z,23.64
2022-08-26T06:21:41.501Z,23.98
2022-08-26T06:24:30.434Z,24.12
2022-08-26T06:27:01.802Z,24.47
2022-08-26T06:29:31.431Z,24.73
2022-08-26T06:31:58.712Z,24.67
2022-08-26T06:34:30.356Z,24.84
2022-08-26T06:37:01.412Z,24.89
2022-08-26T06:39:30.967Z,25.06
2022-08-26T06:41:59.473Z,25.37
2022-08-26T06:44:27.318Z,25.47
2022-08-26T06:46:54.691Z,25.54
2022-08-26T06:49:26.817Z,25.76
2022-08-26T06:51:54.783Z,26.04
2022-08-26T06:54:22.421Z,26.14
2022-08-26T06:56:49.641Z,26.18
2022-08-26T06:59:16.575Z,26.12
2022-08-26T07:01:45.077Z,26.18
2022-08-26T07:04:20.308Z,26.11
2022-08-26T07:06:52.656Z,26.05
2022-08-26T07:09:22.673Z,26.03
2022-08-26T07:11:51.467Z,26.19
2022-08-26T07:14:19.307Z,26.25
2022-08-26T07:16:49.892Z,26.15
2022-08-26T07:19:30.319Z,26.47
2022-08-26T07:47:44.419Z,27.22
2022-08-26T07:50:11.670Z,27.22
2022-08-26T07:52:38.916Z,26.62
2022-08-26T07:55:11.631Z,26.71
2022-08-26T07:57:38.673Z,26.90
2022-08-26T08:00:09.177Z,27.24
2022-08-26T08:02:36.126Z,27.22
2022-08-26T08:05:06.061Z,27.37
2022-08-26T08:07:44.207Z,27.45
2022-08-26T08:10:15.538Z,27.68
2022-08-26T08:12:43.344Z,27.83
2022-08-26T08:15:13.401Z,27.71
2022-08-26T08:17:43.493Z,27.72
2022-08-26T08:20:12.282Z,28.00
2022-08-26T08:22:39.239Z,28.22
2022-08-26T08:25:08.163Z,28.30
2022-08-26T08:27:38.874Z,28.39
2022-08-26T08:30:06.924Z,28.56
2022-08-26T08:32:38.464Z,28.67
2022-08-26T08:35:11.600Z,28.66
2022-08-26T08:37:38.775Z,28.53
2022-08-26T08:40:08.095Z,28.77
2022-08-26T08:42:56.786Z,28.47
2022-08-26T08:45:51.713Z,28.74
2022-08-26T08:48:42.560Z,29.32
2022-08-26T08:51:23.968Z,29.12
2022-08-26T08:53:54.774Z,29.27
2022-08-26T08:56:27.514Z,29.30
2022-08-26T08:59:31.710Z,29.36
2022-08-26T09:02:08.726Z,29.47
2022-08-26T09:05:15.141Z,29.58
2022-08-26T09:07:51.000Z,29.49
2022-08-26T09:10:26.702Z,29.72
2022-08-26T09:12:53.640Z,29.84
2022-08-26T09:15:35.834Z,29.90
2022-08-26T09:18:09.078Z,29.95
2022-08-26T09:20:55.508Z,30.03
2022-08-26T09:23:22.703Z,29.88
2022-08-26T09:26:25.923Z,29.96
2022-08-26T09:29:01.080Z,30.14
2022-08-26T09:31:34.300Z,29.76
2022-08-26T09:34:22.639Z,30.23
2022-08-26T09:36:55.724Z,30.63
2022-08-26T09:39:27.111Z,30.66
2022-08-26T09:42:05.168Z,30.55
2022-08-26T09:44:33.123Z,30.23
2022-08-26T09:47:04.614Z,30.17
2022-08-26T09:49:41.278Z,30.30
2022-08-26T09:52:10.603Z,30.62
2022-08-26T09:54:38.786Z,30.53
2022-08-26T09:57:25.331Z,31.02
2022-08-26T09:59:53.406Z,31.10
2022-08-26T10:02:29.092Z,31.11
2022-08-26T10:04:58.511Z,29.90
2022-08-26T10:07:48.437Z,30.07
2022-08-26T10:10:41.209Z,30.47
2022-08-26T10:13:12.026Z,30.47
2022-08-26T10:15:50.657Z,30.55
2022-08-26T10:18:56.784Z,30.45
2022-08-26T10:21:33.187Z,30.50
2022-08-26T10:24:02.038Z,30.45
2022-08-26T10:27:05.629Z,30.49
2022-08-26T10:29:43.252Z,31.01
2022-08-26T10:32:18.854Z,31.22
2022-08-26T10:34:45.939Z,31.54
2022-08-26T10:37:18.761Z,31.80
2022-08-26T10:39:57.122Z,31.48
2022-08-26T10:42:37.598Z,31.21
2022-08-26T10:45:25.537Z,31.54
2022-08-26T10:48:01.339Z,30.86
2022-08-26T10:50:37.282Z,30.79
2022-08-26T10:53:14.929Z,30.54
2022-08-26T10:55:50.905Z,30.29
2022-08-26T10:58:41.664Z,30.11
2022-08-26T11:01:35.747Z,30.54
2022-08-26T11:04:28.804Z,30.25
2022-08-26T11:07:32.865Z,30.17
2022-08-26T11:10:12.958Z,30.22
2022-08-26T11:12:39.836Z,30.19
2022-08-26T11:15:19.963Z,30.47
2022-08-26T11:17:51.627Z,30.37
2022-08-26T11:20:27.971Z,30.03
2022-08-26T11:23:16.282Z,29.95
2022-08-26T11:26:01.120Z,29.99
2022-08-26T11:28:38.239Z,30.29
2022-08-26T11:31:10.206Z,29.94
2022-08-26T11:33:46.102Z,30.18
2022-08-26T11:36:42.211Z,29.71
2022-08-26T11:39:29.308Z,30.04
2022-08-26T11:42:00.227Z,30.44
2022-08-26T11:44:39.564Z,30.76
2022-08-26T11:47:11.686Z,31.09
2022-08-26T11:49:41.752Z,31.22
2022-08-26T11:52:10.113Z,31.26
2022-08-26T11:54:37.035Z,31.40
2022-08-26T11:57:09.346Z,31.43
2022-08-26T11:59:42.453Z,31.38
2022-08-26T12:02:17.882Z,31.41
2022-08-26T12:04:49.066Z,31.26
2022-08-26T12:07:18.586Z,31.38
2022-08-26T12:10:00.638Z,31.26
2022-08-26T12:12:35.982Z,31.39
2022-08-26T12:15:10.689Z,31.32
2022-08-26T12:17:39.705Z,31.24
2022-08-26T12:20:30.218Z,31.35
2022-08-26T12:23:00.191Z,31.35
2022-08-26T12:25:28.188Z,31.41
2022-08-26T12:28:05.671Z,31.51
2022-08-26T12:30:32.592Z,31.80
2022-08-26T12:33:21.960Z,31.87
2022-08-26T12:35:56.314Z,32.02
2022-08-26T12:38:27.102Z,31.93
2022-08-26T12:40:54.807Z,31.37
2022-08-26T12:43:57.432Z,31.71
2022-08-26T12:46:29.044Z,31.73
2022-08-26T12:49:01.178Z,31.81
2022-08-26T12:51:31.366Z,31.83
2022-08-26T12:53:59.405Z,31.96
2022-08-26T12:56:47.726Z,31.83
2022-08-26T12:59:25.175Z,31.95
2022-08-26T13:01:53.720Z,31.69
2022-08-26T13:04:39.285Z,31.65
2022-08-26T13:07:35.553Z,31.92
2022-08-26T13:10:02.456Z,31.78
2022-08-26T13:12:37.535Z,31.51
2022-08-26T13:15:06.579Z,31.75
2022-08-26T13:17:36.025Z,31.35
2022-08-26T13:20:04.666Z,31.34
2022-08-26T13:22:31.930Z,31.30
2022-08-26T13:24:58.848Z,31.02
2022-08-26T13:27:27.388Z,31.00
2022-08-26T13:29:57.240Z,30.96
2022-08-26T13:32:27.166Z,30.73
2022-08-26T13:34:56.551Z,30.65
2022-08-26T13:37:34.300Z,30.61
2022-08-26T13:40:05.066Z,30.69
2022-08-26T13:42:32.040Z,30.86
2022-08-26T13:44:59.865Z,30.89
2022-08-26T13:47:30.416Z,30.95
2022-08-26T13:49:57.591Z,31.03
2022-08-26T13:52:30.090Z,31.00
2022-08-26T13:55:02.188Z,30.96
2022-08-26T13:57:30.545Z,31.03
2022-08-26T13:59:59.192Z,31.00
2022-08-26T14:02:27.870Z,30.92
2022-08-26T14:04:55.447Z,31.01
2022-08-26T14:07:23.506Z,31.02
2022-08-26T14:09:50.563Z,31.09
2022-08-26T14:12:17.727Z,31.02
2022-08-26T14:14:45.089Z,30.82
2022-08-26T14:17:17.954Z,30.66
2022-08-26T14:19:46.977Z,30.92
2022-08-26T14:22:17.476Z,31.13
2022-08-26T14:24:45.139Z,31.30
2022-08-26T14:27:13.269Z,31.55
2022-08-26T14:29:40.790Z,31.76
2022-08-26T14:32:17.186Z,31.89
2022-08-26T14:34:47.989Z,32.06
2022-08-26T14:37:15.422Z,32.18
2022-08-26T14:39:42.498Z,32.32
2022-08-26T14:42:10.219Z,32.30
2022-08-26T14:44:37.734Z,32.18
2022-08-26T14:47:06.733Z,32.00
2022-08-26T14:49:33.773Z,32.27
2022-08-26T14:52:00.670Z,32.41
2022-08-26T14:54:28.959Z,32.29
2022-08-26T14:56:59.699Z,32.22
2022-08-26T14:59:38.807Z,32.24
2022-08-26T15:02:08.917Z,32.18
2022-08-26T15:04:41.029Z,32.06
2022-08-26T15:10:09.046Z,31.91
2022-08-26T15:12:35.985Z,31.99
2022-08-26T15:15:03.262Z,31.79
2022-08-26T15:17:30.355Z,31.79
2022-08-26T15:19:57.726Z,31.67
2022-08-26T15:22:24.624Z,31.75
2022-08-26T15:24:58.047Z,31.87
2022-08-26T15:27:25.004Z,31.67
2022-08-26T15:29:52.000Z,31.40
2022-08-26T15:32:18.980Z,31.50
2022-08-26T15:34:45.904Z,31.48
2022-08-26T15:37:12.987Z,31.41
2022-08-26T15:39:39.896Z,31.32
2022-08-26T15:42:07.051Z,31.23
2022-08-26T15:44:34.296Z,31.36
2022-08-26T15:47:01.271Z,31.24
2022-08-26T15:49:28.387Z,31.09
2022-08-26T15:51:55.370Z,31.26
2022-08-26T15:54:23.238Z,31.39
2022-08-26T15:56:52.451Z,31.25
2022-08-26T15:59:21.672Z,31.21
2022-08-26T16:01:48.841Z,30.88
2022-08-26T16:04:16.036Z,30.85
2022-08-26T16:06:43.651Z,30.94
2022-08-26T16:09:10.966Z,30.89
2022-08-26T16:11:38.020Z,31.05
2022-08-26T16:14:06.103Z,31.09
2022-08-26T16:16:33.101Z,30.73
2022-08-26T16:19:03.271Z,30.44
2022-08-26T16:21:34.062Z,30.42
2022-08-26T16:24:00.996Z,30.62
2022-08-26T16:26:32.648Z,30.61
2022-08-26T16:29:01.922Z,30.91
2022-08-26T16:31:28.986Z,31.05
2022-08-26T16:33:55.875Z,31.06
2022-08-26T16:36:22.929Z,31.06
2022-08-26T16:38:56.537Z,30.83
2022-08-26T16:41:26.360Z,30.89
2022-08-26T16:43:54.207Z,30.91
2022-08-26T16:46:23.733Z,30.69
2022-08-26T16:48:50.880Z,30.81
2022-08-26T16:51:23.044Z,30.69
2022-08-26T16:53:51.245Z,30.63
2022-08-26T16:56:21.150Z,30.39
2022-08-26T16:58:48.510Z,30.39
2022-08-26T17:01:16.843Z,30.40
2022-08-26T17:03:44.305Z,30.32
2022-08-26T17:06:11.708Z,30.25
2022-08-26T17:08:40.132Z,30.25
2022-08-26T17:11:08.513Z,30.15
2022-08-26T17:13:36.655Z,30.13
2022-08-26T17:16:07.582Z,30.07
2022-08-26T17:18:35.041Z,30.04
2022-08-26T17:21:05.139Z,29.77
2022-08-26T17:23:32.831Z,29.57
2022-08-26T17:25:59.757Z,29.63
2022-08-26T17:28:26.689Z,29.60
2022-08-26T17:30:56.297Z,29.46
2022-08-26T17:33:24.629Z,29.36
2022-08-26T17:35:53.116Z,29.17
2022-08-26T17:38:21.273Z,29.22
2022-08-26T17:40:52.103Z,29.22
2022-08-26T17:43:19.417Z,29.36
2022-08-26T17:45:46.810Z,29.34
2022-08-26T17:48:14.083Z,29.35
2022-08-26T17:50:43.150Z,29.30
2022-08-26T17:53:18.552Z,29.09
2022-08-26T17:55:46.777Z,28.83
2022-08-26T17:58:14.887Z,28.65
2022-08-26T18:00:47.569Z,28.60
2022-08-26T18:03:15.100Z,28.59
2022-08-26T18:05:42.720Z,28.44
2022-08-26T18:08:10.074Z,28.40
2022-08-26T18:10:37.008Z,28.31
2022-08-26T18:13:04.828Z,28.25
2022-08-26T18:15:31.753Z,28.14
2022-08-26T18:17:58.747Z,27.98
2022-08-26T18:20:26.044Z,27.98
2022-08-26T18:22:54.167Z,27.93
2022-08-26T18:25:21.223Z,27.92
2022-08-26T18:27:48.152Z,27.04
2022-08-26T18:30:20.899Z,26.35
2022-08-26T18:32:49.477Z,26.04
2022-08-26T18:35:16.679Z,25.99
2022-08-26T18:37:44.523Z,26.11
2022-08-26T18:40:13.948Z,26.07
2022-08-26T18:42:41.499Z,25.66
2022-08-26T18:45:09.664Z,25.94
2022-08-26T18:47:44.039Z,25.98
2022-08-26T18:50:11.459Z,25.27
2022-08-26T18:52:38.815Z,25.52
2022-08-26T18:55:06.727Z,25.68
2022-08-26T18:57:33.930Z,25.88
2022-08-26T19:00:01.350Z,26.02
2022-08-26T19:02:28.558Z,26.04
2022-08-26T19:04:57.548Z,26.00
2022-08-26T19:07:24.586Z,26.04
2022-08-26T19:09:54.045Z,26.05
2022-08-26T19:12:21.488Z,25.73
2022-08-26T19:14:48.374Z,25.43
2022-08-26T19:17:15.551Z,25.33
2022-08-26T19:19:42.543Z,25.21
2022-08-26T19:22:11.304Z,24.87
2022-08-26T19:24:38.334Z,24.67
2022-08-26T19:27:05.525Z,24.75
2022-08-26T19:29:35.429Z,24.16
2022-08-26T19:32:04.416Z,24.19
2022-08-26T19:34:31.807Z,24.14
2022-08-26T19:36:58.745Z,24.19
2022-08-26T19:39:26.699Z,24.41
2022-08-26T19:41:53.690Z,24.01
2022-08-26T19:44:41.683Z,23.91
2022-08-26T19:47:11.050Z,23.73
2022-08-26T19:49:38.310Z,24.02
2022-08-26T19:52:06.122Z,24.30
2022-08-26T19:54:34.676Z,24.17
2022-08-26T19:57:02.039Z,24.16
2022-08-26T19:59:29.489Z,24.29
2022-08-26T20:02:00.803Z,23.90
2022-08-26T20:04:32.912Z,23.64
2022-08-26T20:07:01.851Z,23.53
2022-08-26T20:09:34.248Z,23.49
2022-08-26T20:12:02.085Z,23.41
2022-08-26T20:14:29.908Z,23.22
2022-08-26T20:16:57.350Z,22.96
2022-08-26T20:19:42.885Z,22.95
2022-08-26T20:22:10.826Z,22.81
2022-08-26T20:24:37.999Z,22.89
2022-08-26T20:27:08.011Z,22.66
2022-08-26T20:29:36.500Z,22.49
2022-08-26T20:32:06.206Z,22.62
2022-08-26T20:34:33.847Z,22.68
2022-08-26T20:37:01.239Z,22.71
2022-08-26T20:39:31.246Z,22.75
2022-08-26T20:41:58.967Z,22.93
2022-08-26T20:44:27.083Z,23.03
2022-08-26T20:46:55.375Z,22.96
2022-08-26T20:49:22.428Z,22.88
2022-08-26T20:51:52.617Z,22.98
2022-08-26T20:54:28.222Z,22.90
2022-08-26T20:56:57.324Z,22.85
2022-08-26T20:59:25.043Z,22.90
2022-08-26T21:01:52.115Z,22.30
2022-08-26T21:04:22.170Z,22.21
2022-08-26T21:06:52.160Z,21.58
2022-08-26T21:09:21.786Z,21.36
2022-08-26T21:11:48.932Z,21.45
2022-08-26T21:14:16.928Z,21.75
2022-08-26T21:16:45.872Z,22.44
2022-08-26T21:19:17.879Z,22.10
2022-08-26T21:21:46.012Z,21.87
2022-08-26T21:24:13.548Z,21.44
2022-08-26T21:26:40.643Z,21.57
2022-08-26T21:29:09.993Z,21.72
2022-08-26T21:31:42.245Z,21.15
2022-08-26T21:34:12.186Z,21.42
2022-08-26T21:36:39.140Z,21.52
2022-08-26T21:39:11.230Z,21.50
2022-08-26T21:41:39.287Z,21.43
2022-08-26T21:44:06.809Z,21.28
2022-08-26T21:46:37.421Z,21.27
2022-08-26T21:49:07.597Z,21.38
2022-08-26T21:51:41.020Z,21.54
2022-08-26T21:54:11.348Z,21.62
2022-08-26T21:56:42.154Z,21.63
2022-08-26T21:59:09.675Z,21.43
2022-08-26T22:01:37.864Z,21.45
2022-08-26T22:04:06.817Z,21.66
2022-08-26T22:06:35.723Z,21.80
2022-08-26T22:09:02.601Z,21.68
2022-08-26T22:11:29.561Z,21.11
2022-08-26T22:13:57.077Z,21.02
2022-08-26T22:16:26.962Z,20.82
2022-08-26T22:18:54.877Z,20.78
2022-08-26T22:21:28.125Z,20.67
2022-08-26T22:23:57.986Z,20.67
2022-08-26T22:26:28.955Z,20.49
2022-08-26T22:28:59.161Z,20.69
2022-08-26T22:31:37.514Z,20.71
2022-08-26T22:34:11.183Z,20.53
2022-08-26T22:36:44.371Z,20.55
2022-08-26T22:39:13.539Z,20.40
2022-08-26T22:41:43.188Z,20.43
2022-08-26T22:44:11.876Z,20.79
2022-08-26T22:46:40.494Z,20.86
2022-08-26T22:49:09.708Z,21.05
2022-08-26T22:51:36.717Z,21.23
2022-08-26T22:54:03.936Z,20.97
2022-08-26T22:56:30.846Z,20.94
2022-08-26T22:58:57.780Z,20.60
2022-08-26T23:01:24.823Z,20.67
2022-08-26T23:03:51.812Z,20.66
2022-08-26T23:06:18.739Z,20.98
2022-08-26T23:08:47.201Z,21.10
2022-08-26T23:11:15.106Z,21.06
2022-08-26T23:13:42.091Z,21.41
2022-08-26T23:16:11.226Z,21.38
2022-08-26T23:18:40.128Z,21.04
2022-08-26T23:21:07.423Z,20.57
2022-08-26T23:23:35.353Z,20.49
2022-08-26T23:26:06.164Z,20.66
2022-08-26T23:28:34.647Z,20.23
2022-08-26T23:31:01.898Z,20.25
2022-08-26T23:33:48.915Z,20.16
2022-08-26T23:36:18.207Z,20.31
2022-08-26T23:38:52.716Z,20.27
2022-08-26T23:41:22.486Z,20.35
2022-08-26T23:43:50.012Z,20.11
2022-08-26T23:46:17.720Z,20.44
2022-08-26T23:48:44.762Z,20.57
2022-08-26T23:51:30.450Z,20.63
2022-08-26T23:53:58.057Z,20.73
2022-08-26T23:56:25.430Z,20.64
2022-08-26T23:58:54.323Z,20.20
